sensor_id;sensor_type;location;lat;lon;timestamp;pressure;altitude;pressure_sealevel;temperature;humidity
76044;BME280;64740;34.694;33.088;2023-03-26T00:04:23;1032.3;;;19;53
76044;BME280;64740;34.694;33.088;2023-03-26T00:09:25;1032.2;;;18.9;52.9
76044;BME280;64740;34.694;33.088;2023-03-26T00:13:47;1032.2;;;18.9;53.3
76044;BME280;64740;34.694;33.088;2023-03-26T00:18:57;1032.2;;;18.9;53.1
76044;BME280;64740;34.694;33.088;2023-03-26T00:24:15;1032.2;;;18.9;52.4
76044;BME280;64740;34.694;33.088;2023-03-26T00:29:25;1032.2;;;18.9;52.7
76044;BME280;64740;34.694;33.088;2023-03-26T00:34:25;1032.3;;;18.9;52.7
76044;BME280;64740;34.694;33.088;2023-03-26T00:38:57;1032.3;;;19;51.9
76044;BME280;64740;34.694;33.088;2023-03-26T00:43:57;1032.3;;;18.9;51
76044;BME280;64740;34.694;33.088;2023-03-26T00:49:15;1032.3;;;18.7;51.2
76044;BME280;64740;34.694;33.088;2023-03-26T00:54:25;1032.3;;;18.6;51.1
76044;BME280;64740;34.694;33.088;2023-03-26T00:59:27;1032.3;;;18.5;51.5
76044;BME280;64740;34.694;33.088;2023-03-26T01:03:47;1032.2;;;18.4;51.4
76044;BME280;64740;34.694;33.088;2023-03-26T01:09:02;1032.2;;;18.4;51.5
76044;BME280;64740;34.694;33.088;2023-03-26T01:14:18;1032.2;;;18.3;51.3
76044;BME280;64740;34.694;33.088;2023-03-26T01:19:25;1032.1;;;18.3;51.1
76044;BME280;64740;34.694;33.088;2023-03-26T01:23:45;1032.1;;;18.4;51
76044;BME280;64740;34.694;33.088;2023-03-26T01:28:41;1032.2;;;18.4;50.9
76044;BME280;64740;34.694;33.088;2023-03-26T01:33:52;1032.2;;;18.5;50.5
76044;BME280;64740;34.694;33.088;2023-03-26T01:39:19;1032.2;;;18.4;50
76044;BME280;64740;34.694;33.088;2023-03-26T01:44:26;1032.3;;;18.4;49.5
76044;BME280;64740;34.694;33.088;2023-03-26T01:49:07;1032.3;;;18.3;49.7
76044;BME280;64740;34.694;33.088;2023-03-26T01:53:51;1032.3;;;18.1;49
76044;BME280;64740;34.694;33.088;2023-03-26T01:59:02;1032.2;;;18;49.2
76044;BME280;64740;34.694;33.088;2023-03-26T02:04:18;1032.2;;;17.9;49.5
76044;BME280;64740;34.694;33.088;2023-03-26T02:09:26;1032.2;;;17.9;50
76044;BME280;64740;34.694;33.088;2023-03-26T02:14:03;1032.2;;;17.9;49.3
76044;BME280;64740;34.694;33.088;2023-03-26T02:18:51;1032.3;;;17.8;49
76044;BME280;64740;34.694;33.088;2023-03-26T02:23:48;1032.3;;;17.8;49.2
76044;BME280;64740;34.694;33.088;2023-03-26T02:29:15;1032.4;;;17.8;49
76044;BME280;64740;34.694;33.088;2023-03-26T02:34:25;1032.4;;;17.8;48.8
76044;BME280;64740;34.694;33.088;2023-03-26T02:39:17;1032.5;;;17.9;48.9
76044;BME280;64740;34.694;33.088;2023-03-26T02:43:51;1032.5;;;17.9;48.5
76044;BME280;64740;34.694;33.088;2023-03-26T02:48:57;1032.5;;;17.9;48.8
76044;BME280;64740;34.694;33.088;2023-03-26T02:54:15;1032.5;;;18;48.9
76044;BME280;64740;34.694;33.088;2023-03-26T02:59:17;1032.4;;;18;48.2
76044;BME280;64740;34.694;33.088;2023-03-26T03:04:05;1032.5;;;17.9;48
76044;BME280;64740;34.694;33.088;2023-03-26T03:08:41;1032.5;;;17.9;48.2
76044;BME280;64740;34.694;33.088;2023-03-26T03:14:01;1032.5;;;17.9;48
76044;BME280;64740;34.694;33.088;2023-03-26T03:19:01;1032.5;;;17.8;48.2
76044;BME280;64740;34.694;33.088;2023-03-26T03:24:25;1032.6;;;17.8;48
76044;BME280;64740;34.694;33.088;2023-03-26T03:29:17;1032.6;;;17.7;48
76044;BME280;64740;34.694;33.088;2023-03-26T03:33:59;1032.7;;;17.5;47.5
76044;BME280;64740;34.694;33.088;2023-03-26T03:38:41;1032.7;;;17.3;47.8
76044;BME280;64740;34.694;33.088;2023-03-26T03:43:51;1032.8;;;17.1;47.7
76044;BME280;64740;34.694;33.088;2023-03-26T03:49:25;1032.9;;;17;47.9
76044;BME280;64740;34.694;33.088;2023-03-26T03:54:25;1033;;;17;47.7
76044;BME280;64740;34.694;33.088;2023-03-26T03:58:59;1033.2;;;17;48.5
76044;BME280;64740;34.694;33.088;2023-03-26T04:03:41;1033.3;;;17.1;47.9
76044;BME280;64740;34.694;33.088;2023-03-26T04:08:53;1033.3;;;17.1;47.8
76044;BME280;64740;34.694;33.088;2023-03-26T04:14:25;1033.4;;;17.2;47.5
76044;BME280;64740;34.694;33.088;2023-03-26T04:19:15;1033.5;;;17.1;47.4
76044;BME280;64740;34.694;33.088;2023-03-26T04:23:41;1033.5;;;17;47.6
76044;BME280;64740;34.694;33.088;2023-03-26T04:28:48;1033.5;;;16.9;47.5
76044;BME280;64740;34.694;33.088;2023-03-26T04:33:42;1033.5;;;17;48.3
76044;BME280;64740;34.694;33.088;2023-03-26T04:39:27;1033.6;;;17.1;48.1
76044;BME280;64740;34.694;33.088;2023-03-26T04:44:25;1033.6;;;17.1;48.2
76044;BME280;64740;34.694;33.088;2023-03-26T04:48:41;1033.7;;;17.2;48
76044;BME280;64740;34.694;33.088;2023-03-26T04:53:59;1033.7;;;17.4;47.9
76044;BME280;64740;34.694;33.088;2023-03-26T04:58:51;1033.7;;;17.6;48.1
76044;BME280;64740;34.694;33.088;2023-03-26T05:04:23;1033.7;;;17.8;48.1
76044;BME280;64740;34.694;33.088;2023-03-26T05:08:43;1033.7;;;18;48.1
76044;BME280;64740;34.694;33.088;2023-03-26T05:13:55;1033.7;;;18.2;48
76044;BME280;64740;34.694;33.088;2023-03-26T05:18:41;1033.7;;;18.4;48.1
76044;BME280;64740;34.694;33.088;2023-03-26T05:23:55;1033.7;;;18.5;48.4
76044;BME280;64740;34.694;33.088;2023-03-26T05:29:23;1033.7;;;18.8;48.4
76044;BME280;64740;34.694;33.088;2023-03-26T05:34:23;1033.7;;;18.9;48.4
76044;BME280;64740;34.694;33.088;2023-03-26T05:38:41;1033.7;;;19.1;48.3
76044;BME280;64740;34.694;33.088;2023-03-26T05:44:07;1033.7;;;19.3;48.2
76044;BME280;64740;34.694;33.088;2023-03-26T05:48:49;1033.7;;;19.5;48.5
76044;BME280;64740;34.694;33.088;2023-03-26T05:54:15;1033.8;;;19.8;48.6
76044;BME280;64740;34.694;33.088;2023-03-26T05:59:15;1033.7;;;20;48.8
76044;BME280;64740;34.694;33.088;2023-03-26T06:03:55;1033.7;;;20.2;48.7
76044;BME280;64740;34.694;33.088;2023-03-26T06:08:50;1033.8;;;20.4;49
76044;BME280;64740;34.694;33.088;2023-03-26T06:13:55;1033.8;;;20.6;49.2
76044;BME280;64740;34.694;33.088;2023-03-26T06:19:23;1033.8;;;20.8;49.8
76044;BME280;64740;34.694;33.088;2023-03-26T06:24:17;1033.8;;;21.1;50.7
76044;BME280;64740;34.694;33.088;2023-03-26T06:28:51;1033.8;;;21.3;52.7
76044;BME280;64740;34.694;33.088;2023-03-26T06:34:23;1033.8;;;21.5;52.9
76044;BME280;64740;34.694;33.088;2023-03-26T06:38:41;1033.8;;;21.7;54
76044;BME280;64740;34.694;33.088;2023-03-26T06:44:23;1033.7;;;21.8;53.5
76044;BME280;64740;34.694;33.088;2023-03-26T06:49:17;1033.7;;;22;53.4
76044;BME280;64740;34.694;33.088;2023-03-26T06:53:41;1033.7;;;22.1;54.6
76044;BME280;64740;34.694;33.088;2023-03-26T06:58:53;1033.8;;;22.3;54.6
76044;BME280;64740;34.694;33.088;2023-03-26T07:04:15;1033.8;;;22.4;54.1
76044;BME280;64740;34.694;33.088;2023-03-26T07:09:25;1033.9;;;22.4;54.8
76044;BME280;64740;34.694;33.088;2023-03-26T07:14:05;1033.9;;;22.4;54.7
76044;BME280;64740;34.694;33.088;2023-03-26T07:18:53;1034;;;22.4;54.8
76044;BME280;64740;34.694;33.088;2023-03-26T07:23:59;1034.1;;;22.4;55
76044;BME280;64740;34.694;33.088;2023-03-26T07:28:53;1034.1;;;22.5;55.2
76044;BME280;64740;34.694;33.088;2023-03-26T07:34:20;1034.2;;;22.4;55.3
76044;BME280;64740;34.694;33.088;2023-03-26T07:39:32;1034.2;;;22.3;55.6
76044;BME280;64740;34.694;33.088;2023-03-26T07:44:21;1034.1;;;22.4;55.8
76044;BME280;64740;34.694;33.088;2023-03-26T07:49:01;1034.1;;;22.4;56
76044;BME280;64740;34.694;33.088;2023-03-26T07:53:53;1034.1;;;22.4;56
76044;BME280;64740;34.694;33.088;2023-03-26T07:58:46;1034;;;22.4;55.9
76044;BME280;64740;34.694;33.088;2023-03-26T08:04:32;1034;;;22.4;56.2
76044;BME280;64740;34.694;33.088;2023-03-26T08:09:16;1033.9;;;22.5;56
76044;BME280;64740;34.694;33.088;2023-03-26T08:14:01;1033.9;;;22.5;56.2
76044;BME280;64740;34.694;33.088;2023-03-26T08:18:54;1033.9;;;22.5;56.1
76044;BME280;64740;34.694;33.088;2023-03-26T08:24:30;1033.9;;;22.5;56.2
76044;BME280;64740;34.694;33.088;2023-03-26T08:29:28;1033.9;;;22.5;56.4
76044;BME280;64740;34.694;33.088;2023-03-26T08:34:19;1033.9;;;22.6;56.7
76044;BME280;64740;34.694;33.088;2023-03-26T08:38:59;1033.9;;;22.7;56.7
76044;BME280;64740;34.694;33.088;2023-03-26T08:44:01;1033.8;;;22.7;56.7
76044;BME280;64740;34.694;33.088;2023-03-26T08:48:58;1033.8;;;22.8;56.7
76044;BME280;64740;34.694;33.088;2023-03-26T08:53:48;1033.8;;;22.9;56.3
76044;BME280;64740;34.694;33.088;2023-03-26T08:59:25;1033.8;;;22.9;56.6
76044;BME280;64740;34.694;33.088;2023-03-26T09:04:03;1033.8;;;22.9;56.6
76044;BME280;64740;34.694;33.088;2023-03-26T09:08:56;1033.8;;;23;56.6
76044;BME280;64740;34.694;33.088;2023-03-26T09:15:39;1033.8;;;23;55.4
76044;BME280;64740;34.694;33.088;2023-03-26T09:19:47;1033.7;;;23;54.6
76044;BME280;64740;34.694;33.088;2023-03-26T09:28:55;1033.7;;;23;54
76044;BME280;64740;34.694;33.088;2023-03-26T09:33:48;1033.7;;;23.2;54.1
76044;BME280;64740;34.694;33.088;2023-03-26T09:39:28;1033.7;;;23.3;53.9
76044;BME280;64740;34.694;33.088;2023-03-26T09:44:34;1033.6;;;23.4;53.2
76044;BME280;64740;34.694;33.088;2023-03-26T09:49:21;1033.6;;;23.3;53.3
76044;BME280;64740;34.694;33.088;2023-03-26T09:54:02;1033.5;;;23.3;54.1
76044;BME280;64740;34.694;33.088;2023-03-26T09:58:47;1033.4;;;23.4;54.1
76044;BME280;64740;34.694;33.088;2023-03-26T10:04:35;1033.3;;;23.5;54.2
76044;BME280;64740;34.694;33.088;2023-03-26T10:09:19;1033.3;;;23.5;53.7
76044;BME280;64740;34.694;33.088;2023-03-26T10:14:18;1033.3;;;23.5;54.1
76044;BME280;64740;34.694;33.088;2023-03-26T10:19:17;1033.3;;;23.4;53.9
76044;BME280;64740;34.694;33.088;2023-03-26T10:23:56;1033.2;;;23.4;54.2
76044;BME280;64740;34.694;33.088;2023-03-26T10:29:21;1033.2;;;23.4;53.3
76044;BME280;64740;34.694;33.088;2023-03-26T10:34:30;1033.2;;;23.6;51.9
76044;BME280;64740;34.694;33.088;2023-03-26T10:39:33;1033.2;;;23.7;50.4
76044;BME280;64740;34.694;33.088;2023-03-26T10:44:03;1033.2;;;23.8;50.4
76044;BME280;64740;34.694;33.088;2023-03-26T10:48:46;1033.1;;;23.9;49
76044;BME280;64740;34.694;33.088;2023-03-26T10:54:20;1033.1;;;24.1;47.1
76044;BME280;64740;34.694;33.088;2023-03-26T10:59:25;1033;;;24.3;47.5
76044;BME280;64740;34.694;33.088;2023-03-26T11:04:19;1033;;;24.5;47.3
76044;BME280;64740;34.694;33.088;2023-03-26T11:08:50;1032.9;;;24.7;47.1
76044;BME280;64740;34.694;33.088;2023-03-26T11:13:52;1032.8;;;24.9;46.4
76044;BME280;64740;34.694;33.088;2023-03-26T11:19:10;1032.7;;;25.1;45.8
76044;BME280;64740;34.694;33.088;2023-03-26T11:24:20;1032.7;;;25.5;45.1
76044;BME280;64740;34.694;33.088;2023-03-26T11:29:21;1032.7;;;25.8;44.3
76044;BME280;64740;34.694;33.088;2023-03-26T11:33:59;1032.7;;;26;43.2
76044;BME280;64740;34.694;33.088;2023-03-26T11:38:42;1032.7;;;26.1;42
76044;BME280;64740;34.694;33.088;2023-03-26T11:44:18;1032.7;;;26.2;41.8
76044;BME280;64740;34.694;33.088;2023-03-26T11:49:27;1032.6;;;26.5;40.8
76044;BME280;64740;34.694;33.088;2023-03-26T11:54:06;1032.7;;;26.9;40.7
76044;BME280;64740;34.694;33.088;2023-03-26T11:58:56;1032.7;;;27;41.1
76044;BME280;64740;34.694;33.088;2023-03-26T12:04:02;1032.7;;;27;40.7
76044;BME280;64740;34.694;33.088;2023-03-26T12:08:55;1032.6;;;27.1;40.4
76044;BME280;64740;34.694;33.088;2023-03-26T12:14:24;1032.6;;;27.2;39
76044;BME280;64740;34.694;33.088;2023-03-26T12:19:25;1032.6;;;27.5;38.4
76044;BME280;64740;34.694;33.088;2023-03-26T12:23:52;1032.5;;;27.7;37.7
76044;BME280;64740;34.694;33.088;2023-03-26T12:28:43;1032.5;;;28.2;37
76044;BME280;64740;34.694;33.088;2023-03-26T12:33:41;1032.5;;;28.1;35.4
76044;BME280;64740;34.694;33.088;2023-03-26T12:39:25;1032.5;;;27.8;34.7
76044;BME280;64740;34.694;33.088;2023-03-26T12:44:20;1032.4;;;27.5;35
76044;BME280;64740;34.694;33.088;2023-03-26T12:48:50;1032.4;;;27.5;34.4
76044;BME280;64740;34.694;33.088;2023-03-26T12:53:47;1032.4;;;27.4;33.7
76044;BME280;64740;34.694;33.088;2023-03-26T12:59:00;1032.4;;;27.1;34.1
76044;BME280;64740;34.694;33.088;2023-03-26T13:04:16;1032.3;;;27;34.2
76044;BME280;64740;34.694;33.088;2023-03-26T13:09:31;1032.3;;;27;34.2
76044;BME280;64740;34.694;33.088;2023-03-26T13:14:01;1032.2;;;27.1;33.5
76044;BME280;64740;34.694;33.088;2023-03-26T13:18:43;1032.2;;;27.1;33.1
76044;BME280;64740;34.694;33.088;2023-03-26T13:23:42;1032.2;;;27.1;33.7
76044;BME280;64740;34.694;33.088;2023-03-26T13:29:17;1032.3;;;27.2;33.2
76044;BME280;64740;34.694;33.088;2023-03-26T13:34:03;1032.2;;;27;34
76044;BME280;64740;34.694;33.088;2023-03-26T13:39:00;1032.2;;;27.1;34.4
76044;BME280;64740;34.694;33.088;2023-03-26T13:44:01;1032.3;;;27;35.1
76044;BME280;64740;34.694;33.088;2023-03-26T13:49:00;1032.3;;;26.9;35.5
76044;BME280;64740;34.694;33.088;2023-03-26T13:54:22;1032.3;;;26.9;36.1
76044;BME280;64740;34.694;33.088;2023-03-26T13:59:22;1032.3;;;26.8;36.9
76044;BME280;64740;34.694;33.088;2023-03-26T14:03:49;1032.3;;;26.8;36.9
76044;BME280;64740;34.694;33.088;2023-03-26T14:08:42;1032.3;;;26.8;37.1
76044;BME280;64740;34.694;33.088;2023-03-26T14:13:50;1032.3;;;26.8;37
76044;BME280;64740;34.694;33.088;2023-03-26T14:19:21;1032.4;;;26.9;37.2
76044;BME280;64740;34.694;33.088;2023-03-26T14:24:06;1032.4;;;26.7;37.9
76044;BME280;64740;34.694;33.088;2023-03-26T14:29:02;1032.3;;;26.4;38.4
76044;BME280;64740;34.694;33.088;2023-03-26T14:33:47;1032.3;;;26.4;38.6
76044;BME280;64740;34.694;33.088;2023-03-26T14:38:59;1032.3;;;26.4;38.7
76044;BME280;64740;34.694;33.088;2023-03-26T14:44:26;1032.2;;;26.3;38.9
76044;BME280;64740;34.694;33.088;2023-03-26T14:49:19;1032.2;;;26.1;39.1
76044;BME280;64740;34.694;33.088;2023-03-26T15:10:20;1032.2;;;25.7;40
76044;BME280;64740;34.694;33.088;2023-03-26T15:14:12;1032.2;;;25.4;40.6
76044;BME280;64740;34.694;33.088;2023-03-26T15:19:08;1032.3;;;24.8;41.7
76044;BME280;64740;34.694;33.088;2023-03-26T15:28:51;1032.3;;;24.1;42.9
76044;BME280;64740;34.694;33.088;2023-03-26T15:34:55;1032.4;;;23.7;43.8
76044;BME280;64740;34.694;33.088;2023-03-26T15:39:21;1032.4;;;23.2;44.5
76044;BME280;64740;34.694;33.088;2023-03-26T15:44:06;1032.4;;;22.7;45.6
76044;BME280;64740;34.694;33.088;2023-03-26T15:48:51;1032.4;;;22.4;46.2
76044;BME280;64740;34.694;33.088;2023-03-26T15:53:56;1032.5;;;22.1;46.7
76044;BME280;64740;34.694;33.088;2023-03-26T15:59:13;1032.5;;;21.8;47.3
76044;BME280;64740;34.694;33.088;2023-03-26T16:03:56;1032.5;;;21.6;47.9
76044;BME280;64740;34.694;33.088;2023-03-26T16:09:11;1032.6;;;21.5;48.1
76044;BME280;64740;34.694;33.088;2023-03-26T16:13:47;1032.6;;;21.4;48.4
76044;BME280;64740;34.694;33.088;2023-03-26T16:19:30;1032.6;;;21.3;48.4
76044;BME280;64740;34.694;33.088;2023-03-26T16:24:10;1032.7;;;21.3;48.5
76044;BME280;64740;34.694;33.088;2023-03-26T16:28:59;1032.7;;;21.1;48.7
76044;BME280;64740;34.694;33.088;2023-03-26T16:34:17;1032.7;;;21.1;48.7
76044;BME280;64740;34.694;33.088;2023-03-26T16:38:53;1032.8;;;21;48.9
76044;BME280;64740;34.694;33.088;2023-03-26T16:44:23;1032.9;;;20.9;49
76044;BME280;64740;34.694;33.088;2023-03-26T16:49:14;1032.9;;;20.8;49.2
76044;BME280;64740;34.694;33.088;2023-03-26T16:54:07;1032.9;;;20.7;49.3
76044;BME280;64740;34.694;33.088;2023-03-26T16:59:21;1033;;;20.7;49.4
76044;BME280;64740;34.694;33.088;2023-03-26T17:03:43;1033.1;;;20.7;49.6
76044;BME280;64740;34.694;33.088;2023-03-26T17:09:26;1033.1;;;20.6;49.8
76044;BME280;64740;34.694;33.088;2023-03-26T17:13:55;1033.1;;;20.6;49.9
76044;BME280;64740;34.694;33.088;2023-03-26T17:19:06;1033.2;;;20.5;50.1
76044;BME280;64740;34.694;33.088;2023-03-26T17:24:10;1033.3;;;20.5;50.2
76044;BME280;64740;34.694;33.088;2023-03-26T17:28:52;1033.4;;;20.5;50.1
76044;BME280;64740;34.694;33.088;2023-03-26T17:34:30;1033.4;;;20.4;50.2
76044;BME280;64740;34.694;33.088;2023-03-26T17:39:20;1033.5;;;20.4;50.3
76044;BME280;64740;34.694;33.088;2023-03-26T17:43:42;1033.4;;;20.4;50.3
76044;BME280;64740;34.694;33.088;2023-03-26T17:49:24;1033.5;;;20.4;50.3
76044;BME280;64740;34.694;33.088;2023-03-26T17:53:51;1033.5;;;20.3;50.3
76044;BME280;64740;34.694;33.088;2023-03-26T17:59:03;1033.5;;;20.2;50.3
76044;BME280;64740;34.694;33.088;2023-03-26T18:04:10;1033.6;;;20.1;50.4
76044;BME280;64740;34.694;33.088;2023-03-26T18:09:23;1033.6;;;20;50.6
76044;BME280;64740;34.694;33.088;2023-03-26T18:19:07;1033.6;;;19.9;50.8
76044;BME280;64740;34.694;33.088;2023-03-26T18:24:24;1033.6;;;19.9;50.8
76044;BME280;64740;34.694;33.088;2023-03-26T18:29:11;1033.7;;;19.9;50.8
76044;BME280;64740;34.694;33.088;2023-03-26T18:33:54;1033.8;;;19.8;50.9
76044;BME280;64740;34.694;33.088;2023-03-26T18:39:10;1033.8;;;19.8;50.7
76044;BME280;64740;34.694;33.088;2023-03-26T18:44:00;1033.8;;;19.3;50.5
76044;BME280;64740;34.694;33.088;2023-03-26T18:49:24;1033.9;;;18.5;53.5
76044;BME280;64740;34.694;33.088;2023-03-26T18:54:12;1034;;;18.1;54.7
76044;BME280;64740;34.694;33.088;2023-03-26T18:59:06;1034;;;17.7;55.9
76044;BME280;64740;34.694;33.088;2023-03-26T19:04:12;1034;;;17.5;56.7
76044;BME280;64740;34.694;33.088;2023-03-26T19:09:02;1034.1;;;17.3;56.7
76044;BME280;64740;34.694;33.088;2023-03-26T19:14:13;1034.1;;;17.1;56.9
76044;BME280;64740;34.694;33.088;2023-03-26T19:19:18;1034.1;;;17;57
76044;BME280;64740;34.694;33.088;2023-03-26T19:23:42;1034.1;;;17;57.1
76044;BME280;64740;34.694;33.088;2023-03-26T19:29:11;1034.1;;;17;57.1
76044;BME280;64740;34.694;33.088;2023-03-26T19:33:42;1034;;;16.9;57.5
76044;BME280;64740;34.694;33.088;2023-03-26T19:39:33;1034.1;;;16.8;57.6
76044;BME280;64740;34.694;33.088;2023-03-26T19:44:16;1034.1;;;16.9;57.5
76044;BME280;64740;34.694;33.088;2023-03-26T19:49:06;1034.1;;;17.4;56.3
76044;BME280;64740;34.694;33.088;2023-03-26T19:54:17;1034.1;;;17.7;55.2
76044;BME280;64740;34.694;33.088;2023-03-26T19:58:42;1034.2;;;18.1;54.4
76044;BME280;64740;34.694;33.088;2023-03-26T20:04:24;1034.2;;;18.4;53.8
76044;BME280;64740;34.694;33.088;2023-03-26T20:09:12;1034.3;;;18.5;53.3
76044;BME280;64740;34.694;33.088;2023-03-26T20:14:06;1034.3;;;18.8;52.8
76044;BME280;64740;34.694;33.088;2023-03-26T20:18:44;1034.3;;;18.9;52.4
76044;BME280;64740;34.694;33.088;2023-03-26T20:23:52;1034.4;;;19;51.9
76044;BME280;64740;34.694;33.088;2023-03-26T20:28:56;1034.3;;;19;51.4
76044;BME280;64740;34.694;33.088;2023-03-26T20:33:42;1034.3;;;19.1;50.9
76044;BME280;64740;34.694;33.088;2023-03-26T20:39:06;1034.3;;;19.1;50.4
76044;BME280;64740;34.694;33.088;2023-03-26T20:44:26;1034.2;;;19.1;50.2
76044;BME280;64740;34.694;33.088;2023-03-26T20:48:42;1034.2;;;19.2;50
76044;BME280;64740;34.694;33.088;2023-03-26T20:54:24;1034.1;;;19.2;49.8
76044;BME280;64740;34.694;33.088;2023-03-26T20:58:42;1034.2;;;19.2;49.7
76044;BME280;64740;34.694;33.088;2023-03-26T21:04:02;1034.2;;;19.2;49.8
76044;BME280;64740;34.694;33.088;2023-03-26T21:09:22;1034.2;;;19.2;50.3
76044;BME280;64740;34.694;33.088;2023-03-26T21:13:51;1034.2;;;19.2;50.7
76044;BME280;64740;34.694;33.088;2023-03-26T21:19:10;1034.1;;;19.2;50.8
76044;BME280;64740;34.694;33.088;2023-03-26T21:23:52;1034;;;19.2;50.8
76044;BME280;64740;34.694;33.088;2023-03-26T21:29:06;1034;;;19.1;50.7
76044;BME280;64740;34.694;33.088;2023-03-26T21:34:22;1034;;;19;50.8
76044;BME280;64740;34.694;33.088;2023-03-26T21:38:52;1034;;;19;51
76044;BME280;64740;34.694;33.088;2023-03-26T21:44:12;1034.1;;;18.9;50.4
76044;BME280;64740;34.694;33.088;2023-03-26T21:49:00;1034.1;;;18.8;50.3
76044;BME280;64740;34.694;33.088;2023-03-26T21:54:08;1034.1;;;18.7;50.4
76044;BME280;64740;34.694;33.088;2023-03-26T21:59:25;1034.1;;;18.6;50.6
76044;BME280;64740;34.694;33.088;2023-03-26T22:04:04;1034.2;;;18.5;50.8
76044;BME280;64740;34.694;33.088;2023-03-26T22:09:12;1034.2;;;18.5;50.8
76044;BME280;64740;34.694;33.088;2023-03-26T22:13:52;1034.1;;;18.5;50.6
76044;BME280;64740;34.694;33.088;2023-03-26T22:18:54;1034.2;;;18.4;50.6
76044;BME280;64740;34.694;33.088;2023-03-26T22:24:16;1034.2;;;18.5;50.5
76044;BME280;64740;34.694;33.088;2023-03-26T22:28:52;1034.3;;;18.5;50.3
76044;BME280;64740;34.694;33.088;2023-03-26T22:34:16;1034.2;;;18.5;50.2
76044;BME280;64740;34.694;33.088;2023-03-26T22:38:52;1034.2;;;18.4;50.2
76044;BME280;64740;34.694;33.088;2023-03-26T22:44:04;1034.1;;;18.4;49.9
76044;BME280;64740;34.694;33.088;2023-03-26T22:49:24;1034.2;;;18.3;49.7
76044;BME280;64740;34.694;33.088;2023-03-26T22:53:42;1034.2;;;18.3;49.7
76044;BME280;64740;34.694;33.088;2023-03-26T22:59:12;1034.2;;;18.2;49.3
76044;BME280;64740;34.694;33.088;2023-03-26T23:03:52;1034.2;;;18.2;49.3
76044;BME280;64740;34.694;33.088;2023-03-26T23:09:14;1034.2;;;18.1;49.6
76044;BME280;64740;34.694;33.088;2023-03-26T23:14:24;1034.2;;;18.1;49.1
76044;BME280;64740;34.694;33.088;2023-03-26T23:19:00;1034.2;;;18.1;49.3
76044;BME280;64740;34.694;33.088;2023-03-26T23:24:14;1034.1;;;18.1;49.2
76044;BME280;64740;34.694;33.088;2023-03-26T23:28:42;1034.1;;;18.1;48.8
76044;BME280;64740;34.694;33.088;2023-03-26T23:34:04;1034;;;18.1;49
76044;BME280;64740;34.694;33.088;2023-03-26T23:39:10;1034.1;;;18.2;49.3
76044;BME280;64740;34.694;33.088;2023-03-26T23:43:50;1034;;;18.2;49
76044;BME280;64740;34.694;33.088;2023-03-26T23:49:14;1034.1;;;18.1;49
76044;BME280;64740;34.694;33.088;2023-03-26T23:53:52;1034;;;18.1;49.3
76044;BME280;64740;34.694;33.088;2023-03-26T23:59:04;1034;;;18.1;49.2
